createdAt,value
2023-04-22T00:00:08.830Z,3.45
2023-04-22T00:02:36.002Z,8.10
2023-04-22T00:05:03.346Z,3.35
2023-04-22T00:07:32.005Z,1.85
2023-04-22T00:09:59.060Z,2.30
2023-04-22T00:12:26.064Z,2.17
2023-04-22T00:14:52.963Z,4.47
2023-04-22T00:17:19.949Z,1.92
2023-04-22T00:19:46.872Z,2.08
2023-04-22T00:22:13.683Z,2.60
2023-04-22T00:24:42.119Z,2.58
2023-04-22T00:27:09.004Z,3.83
2023-04-22T00:29:36.247Z,3.80
2023-04-22T00:32:03.420Z,5.80
2023-04-22T00:34:30.285Z,2.00
2023-04-22T00:36:57.228Z,2.03
2023-04-22T00:39:24.071Z,1.85
2023-04-22T00:41:52.630Z,2.55
2023-04-22T00:44:19.679Z,3.75
2023-04-22T00:46:46.841Z,1.58
2023-04-22T00:49:14.833Z,2.30
2023-04-22T00:51:41.685Z,3.30
2023-04-22T00:54:08.529Z,2.08
2023-04-22T00:56:38.056Z,3.35
2023-04-22T00:59:07.257Z,2.40
2023-04-22T01:01:34.706Z,2.60
2023-04-22T01:04:03.287Z,5.43
2023-04-22T01:06:30.734Z,3.50
2023-04-22T01:08:58.171Z,2.17
2023-04-22T01:11:25.126Z,3.75
2023-04-22T01:13:52.207Z,3.92
2023-04-22T01:16:21.498Z,3.83
2023-04-22T01:18:48.563Z,2.40
2023-04-22T01:21:15.395Z,2.10
2023-04-22T01:23:43.904Z,2.20
2023-04-22T01:26:10.857Z,2.20
2023-04-22T01:28:37.922Z,1.75
2023-04-22T01:31:05.017Z,3.78
2023-04-22T01:33:32.140Z,2.38
2023-04-22T01:35:58.994Z,3.72
2023-04-22T01:38:26.058Z,2.40
2023-04-22T01:40:54.497Z,3.05
2023-04-22T01:43:21.629Z,3.30
2023-04-22T01:45:48.471Z,2.45
2023-04-22T01:48:15.434Z,3.38
2023-04-22T01:50:42.461Z,2.45
2023-04-22T01:53:09.750Z,2.67
2023-04-22T01:55:37.758Z,3.55
2023-04-22T01:58:06.002Z,3.83
2023-04-22T02:00:33.139Z,2.38
2023-04-22T02:03:00.112Z,2.92
2023-04-22T02:05:28.188Z,2.55
2023-04-22T02:07:55.211Z,2.88
2023-04-22T02:10:22.048Z,3.33
2023-04-22T02:12:51.698Z,3.25
2023-04-22T02:15:19.989Z,2.10
2023-04-22T02:17:46.759Z,2.30
2023-04-22T02:20:13.613Z,3.78
2023-04-22T02:22:41.997Z,2.42
2023-04-22T02:25:10.066Z,3.70
2023-04-22T02:27:36.867Z,2.38
2023-04-22T02:30:04.618Z,2.97
2023-04-22T02:32:32.879Z,2.80
2023-04-22T02:34:59.699Z,2.05
2023-04-22T02:37:26.592Z,2.88
2023-04-22T02:39:53.424Z,2.42
2023-04-22T02:42:20.264Z,3.90
2023-04-22T02:44:47.122Z,2.17
2023-04-22T02:47:13.894Z,3.13
2023-04-22T02:49:42.431Z,2.22
2023-04-22T02:52:09.364Z,3.55
2023-04-22T02:54:36.311Z,2.35
2023-04-22T02:57:03.277Z,2.25
2023-04-22T02:59:31.449Z,2.70
2023-04-22T03:01:58.385Z,2.17
2023-04-22T03:04:25.683Z,2.88
2023-04-22T03:06:54.117Z,2.25
2023-04-22T03:09:21.015Z,2.70
2023-04-22T03:11:48.161Z,2.60
2023-04-22T03:14:14.903Z,3.25
2023-04-22T03:16:41.856Z,4.45
2023-04-22T03:19:08.815Z,3.38
2023-04-22T03:21:35.712Z,2.38
2023-04-22T03:24:04.210Z,3.20
2023-04-22T03:26:37.556Z,2.88
2023-04-22T03:29:04.347Z,3.45
2023-04-22T03:31:31.290Z,2.50
2023-04-22T03:33:58.224Z,2.00
2023-04-22T03:36:25.067Z,3.45
2023-04-22T03:38:51.925Z,3.55
2023-04-22T03:41:20.124Z,2.80
2023-04-22T03:43:46.909Z,2.20
2023-04-22T03:46:13.731Z,2.15
2023-04-22T03:48:40.566Z,3.10
2023-04-22T03:51:07.420Z,2.03
2023-04-22T03:53:34.238Z,3.47
2023-04-22T03:56:01.236Z,3.58
2023-04-22T03:58:29.420Z,2.53
2023-04-22T04:00:58.424Z,2.28
2023-04-22T04:03:26.568Z,3.65
2023-04-22T04:05:54.917Z,1.83
2023-04-22T04:08:21.807Z,2.40
2023-04-22T04:10:48.764Z,3.00
2023-04-22T04:13:15.659Z,2.03
2023-04-22T04:15:44.094Z,2.78
2023-04-22T04:18:10.989Z,3.05
2023-04-22T04:20:37.867Z,2.65
2023-04-22T04:23:04.752Z,5.78
2023-04-22T04:25:31.724Z,2.97
2023-04-22T04:27:58.504Z,3.53
2023-04-22T04:30:25.649Z,4.05
2023-04-22T04:32:54.194Z,2.95
2023-04-22T04:35:21.273Z,3.10
2023-04-22T04:37:48.154Z,3.50
2023-04-22T04:40:14.991Z,7.57
2023-04-22T04:42:41.803Z,3.67
2023-04-22T04:45:09.111Z,3.88
2023-04-22T04:47:36.021Z,3.80
2023-04-22T04:50:04.841Z,2.70
2023-04-22T04:52:32.002Z,2.15
2023-04-22T04:54:59.995Z,4.35
2023-04-22T05:00:13.003Z,3.85
2023-04-22T05:02:41.845Z,2.55
2023-04-22T05:05:16.436Z,2.92
2023-04-22T05:10:25.177Z,2.67
2023-04-22T05:12:53.219Z,2.17
2023-04-22T05:15:25.986Z,2.28
2023-04-22T05:20:40.274Z,2.60
2023-04-22T05:23:07.964Z,2.17
2023-04-22T05:25:39.835Z,4.40
2023-04-22T05:28:10.814Z,2.33
2023-04-22T05:33:19.153Z,4.38
2023-04-22T05:35:49.136Z,5.30
2023-04-22T05:38:16.768Z,2.72
2023-04-22T05:40:52.497Z,3.30
2023-04-22T05:43:20.534Z,2.67
2023-04-22T05:45:56.594Z,2.97
2023-04-22T05:48:25.687Z,1.80
2023-04-22T05:51:00.113Z,3.35
2023-04-22T05:53:28.221Z,3.47
2023-04-22T05:55:57.312Z,4.15
2023-04-22T05:58:24.790Z,1.90
2023-04-22T06:00:52.442Z,2.42
2023-04-22T06:03:20.689Z,1.73
2023-04-22T06:13:56.542Z,2.85
2023-04-22T06:16:24.584Z,4.82
2023-04-22T06:18:52.300Z,1.85
2023-04-22T06:21:20.099Z,2.20
2023-04-22T06:26:34.289Z,1.02
2023-04-22T06:29:07.320Z,1.23
2023-04-22T06:31:36.387Z,2.45
2023-04-22T07:04:47.492Z,1.25
2023-04-22T07:07:14.828Z,3.40
2023-04-22T07:09:48.684Z,3.20
2023-04-22T07:15:00.811Z,2.17
2023-04-22T07:17:37.888Z,2.72
2023-04-22T07:20:07.165Z,2.25
2023-04-22T07:22:37.443Z,1.45
2023-04-22T07:30:37.864Z,2.83
2023-04-22T07:35:51.807Z,1.52
2023-04-22T07:38:19.769Z,3.47
2023-04-22T07:40:49.004Z,2.67
2023-04-22T07:48:55.149Z,3.08
2023-04-22T07:56:53.125Z,4.00
2023-04-22T07:59:32.658Z,3.03
2023-04-22T08:04:48.437Z,1.48
2023-04-22T08:12:32.571Z,2.42
2023-04-22T08:15:01.921Z,2.03
2023-04-22T08:17:39.048Z,1.98
2023-04-22T08:25:32.640Z,2.78
2023-04-22T08:27:59.450Z,3.58
2023-04-22T08:30:26.264Z,1.67
2023-04-22T08:32:53.089Z,2.67
2023-04-22T08:35:21.225Z,2.63
2023-04-22T08:37:48.028Z,1.65
2023-04-22T08:40:14.981Z,1.60
2023-04-22T08:42:43.699Z,1.42
2023-04-22T08:45:11.075Z,2.00
2023-04-22T08:47:38.916Z,2.42
2023-04-22T08:50:07.040Z,1.17
2023-04-22T08:52:35.479Z,1.80
2023-04-22T08:55:02.268Z,1.30
2023-04-22T08:57:29.537Z,3.35
2023-04-22T08:59:56.768Z,1.70
2023-04-22T09:02:24.600Z,1.98
2023-04-22T09:04:53.026Z,1.90
2023-04-22T09:07:24.072Z,0.90
2023-04-22T09:09:53.094Z,2.75
2023-04-22T09:12:19.881Z,1.45
2023-04-22T09:14:46.696Z,1.48
2023-04-22T09:17:16.023Z,3.45
2023-04-22T09:19:42.923Z,2.63
2023-04-22T09:22:10.671Z,2.45
2023-04-22T09:24:37.533Z,2.05
2023-04-22T09:27:05.964Z,1.80
2023-04-22T09:29:32.772Z,3.47
2023-04-22T09:32:00.408Z,2.92
2023-04-22T09:34:27.699Z,1.50
2023-04-22T09:36:54.447Z,2.75
2023-04-22T09:39:23.248Z,1.90
2023-04-22T09:41:54.996Z,1.85
2023-04-22T09:44:27.195Z,5.18
2023-04-22T09:46:54.537Z,1.83
2023-04-22T09:49:21.421Z,1.42
2023-04-22T09:51:49.890Z,1.10
2023-04-22T09:54:16.757Z,1.58
2023-04-22T09:56:48.072Z,1.45
2023-04-22T09:59:15.976Z,1.10
2023-04-22T10:01:44.209Z,1.20
2023-04-22T10:04:11.272Z,1.42
2023-04-22T10:06:38.254Z,4.40
2023-04-22T10:09:06.488Z,1.30
2023-04-22T10:11:34.631Z,1.02
2023-04-22T10:14:01.409Z,0.88
2023-04-22T10:16:31.379Z,2.00
2023-04-22T10:19:02.848Z,2.05
2023-04-22T10:21:31.449Z,1.83
2023-04-22T10:23:59.713Z,2.75
2023-04-22T10:26:40.330Z,4.45
2023-04-22T10:29:08.006Z,3.50
2023-04-22T10:31:37.251Z,1.52
2023-04-22T10:34:12.928Z,1.20
2023-04-22T10:37:00.185Z,2.75
2023-04-22T10:39:28.530Z,2.72
2023-04-22T10:42:07.578Z,1.95
2023-04-22T10:44:47.004Z,2.03
2023-04-22T10:47:28.335Z,1.40
2023-04-22T10:50:17.420Z,2.00
2023-04-22T10:52:49.459Z,4.13
2023-04-22T10:55:17.051Z,1.60
2023-04-22T10:57:45.488Z,1.65
2023-04-22T11:00:31.001Z,1.40
2023-04-22T11:03:13.914Z,1.25
2023-04-22T11:05:43.036Z,2.75
2023-04-22T11:08:18.978Z,2.25
2023-04-22T11:10:47.477Z,3.97
2023-04-22T11:13:16.536Z,2.03
2023-04-22T11:15:44.988Z,3.13
2023-04-22T11:18:20.739Z,2.17
2023-04-22T11:20:50.542Z,1.90
2023-04-22T11:23:23.093Z,5.65
2023-04-22T11:25:56.504Z,3.17
2023-04-22T11:28:23.790Z,2.00
2023-04-22T11:30:51.243Z,5.15
2023-04-22T11:33:19.631Z,3.47
2023-04-22T11:35:51.190Z,4.32
2023-04-22T11:38:18.332Z,1.92
2023-04-22T11:40:47.236Z,1.27
2023-04-22T11:43:16.923Z,2.28
2023-04-22T11:45:44.519Z,2.33
2023-04-22T11:48:12.044Z,2.88
2023-04-22T11:50:41.285Z,4.60
2023-04-22T11:53:16.450Z,2.42
2023-04-22T11:55:44.229Z,1.55
2023-04-22T11:58:13.761Z,2.30
2023-04-22T12:00:42.992Z,2.10
2023-04-22T12:03:15.431Z,2.97
2023-04-22T12:05:44.390Z,1.58
2023-04-22T12:08:14.953Z,3.40
2023-04-22T12:10:44.024Z,2.20
2023-04-22T12:13:17.594Z,2.20
2023-04-22T12:18:11.713Z,2.00
2023-04-22T12:20:39.482Z,1.55
2023-04-22T12:23:11.454Z,4.20
2023-04-22T12:25:39.729Z,4.55
2023-04-22T12:28:06.536Z,1.90
2023-04-22T12:30:33.432Z,1.13
2023-04-22T12:33:00.253Z,1.50
2023-04-22T12:35:27.240Z,2.47
2023-04-22T12:37:54.134Z,3.30
2023-04-22T12:40:21.121Z,4.20
2023-04-22T12:42:49.501Z,1.23
2023-04-22T12:45:16.471Z,2.58
2023-04-22T12:47:43.462Z,2.63
2023-04-22T12:50:10.527Z,1.60
2023-04-22T12:52:37.495Z,1.92
2023-04-22T12:55:05.751Z,1.63
2023-04-22T12:57:33.108Z,1.60
2023-04-22T13:00:01.781Z,2.53
2023-04-22T13:02:28.728Z,2.30
2023-04-22T13:04:55.631Z,2.70
2023-04-22T13:07:22.482Z,1.10
2023-04-22T13:09:49.388Z,2.55
2023-04-22T13:12:16.349Z,5.00
2023-04-22T13:14:43.323Z,1.55
2023-04-22T13:17:11.645Z,1.73
2023-04-22T13:19:38.809Z,2.78
2023-04-22T13:22:05.996Z,2.88
2023-04-22T13:24:32.873Z,1.60
2023-04-22T13:26:59.869Z,1.73
2023-04-22T13:29:26.969Z,1.50
2023-04-22T13:31:53.962Z,3.05
2023-04-22T13:34:22.138Z,2.20
2023-04-22T13:36:49.066Z,2.80
2023-04-22T13:39:15.941Z,3.65
2023-04-22T13:41:43.125Z,2.53
2023-04-22T13:44:11.414Z,2.03
2023-04-22T13:46:38.493Z,1.85
2023-04-22T13:49:05.731Z,1.15
2023-04-22T13:51:34.375Z,4.47
2023-04-22T13:54:01.527Z,1.60
2023-04-22T13:56:29.133Z,1.70
2023-04-22T13:58:56.000Z,2.92
2023-04-22T14:01:23.072Z,5.78
2023-04-22T14:03:50.333Z,2.90
2023-04-22T14:06:17.239Z,1.60
2023-04-22T14:08:45.727Z,2.20
2023-04-22T14:11:12.913Z,5.10
2023-04-22T14:13:40.372Z,1.88
2023-04-22T14:16:09.662Z,5.05
2023-04-22T14:18:37.440Z,1.65
2023-04-22T14:21:05.949Z,1.85
2023-04-22T14:23:33.720Z,4.65
2023-04-22T14:26:02.033Z,2.85
2023-04-22T14:28:29.288Z,3.05
2023-04-22T14:30:56.480Z,4.13
2023-04-22T14:33:24.628Z,1.33
2023-04-22T14:35:51.913Z,3.63
2023-04-22T14:38:19.870Z,1.73
2023-04-22T14:40:47.400Z,2.17
2023-04-22T14:43:17.057Z,1.90
2023-04-22T14:45:45.349Z,2.75
2023-04-22T14:48:12.303Z,2.45
2023-04-22T14:50:39.434Z,2.50
2023-04-22T14:53:06.421Z,2.67
2023-04-22T14:55:34.137Z,2.60
2023-04-22T14:58:01.266Z,2.30
2023-04-22T15:00:29.621Z,1.05
2023-04-22T15:02:56.759Z,1.80
2023-04-22T15:05:24.221Z,2.35
2023-04-22T15:07:51.060Z,4.22
2023-04-22T15:10:18.530Z,2.45
2023-04-22T15:12:46.318Z,3.05
2023-04-22T15:15:13.754Z,2.15
2023-04-22T15:17:43.072Z,2.40
2023-04-22T15:20:10.829Z,1.90
2023-04-22T15:22:38.130Z,2.13
2023-04-22T15:25:05.833Z,4.13
2023-04-22T15:27:32.710Z,3.70
2023-04-22T15:29:59.752Z,4.32
2023-04-22T15:32:26.792Z,2.10
2023-04-22T15:34:55.140Z,3.15
2023-04-22T15:37:21.935Z,2.70
2023-04-22T15:39:48.806Z,2.53
2023-04-22T15:42:15.594Z,3.80
2023-04-22T15:44:42.610Z,2.80
2023-04-22T15:47:09.790Z,2.28
2023-04-22T15:49:36.776Z,4.40
2023-04-22T15:52:05.455Z,2.63
2023-04-22T15:54:32.457Z,4.28
2023-04-22T15:56:59.236Z,3.85
2023-04-22T15:59:26.089Z,2.95
2023-04-22T16:01:53.177Z,8.60
2023-04-22T16:04:20.305Z,4.95
2023-04-22T16:06:49.576Z,4.18
2023-04-22T16:09:18.914Z,5.47
2023-04-22T16:11:45.776Z,6.95
2023-04-22T16:14:12.662Z,4.22
2023-04-22T16:16:40.440Z,3.63
2023-04-22T16:19:07.705Z,4.88
2023-04-22T16:21:34.707Z,7.13
2023-04-22T16:24:01.586Z,2.72
2023-04-22T16:26:30.015Z,2.28
2023-04-22T16:28:56.852Z,3.97
2023-04-22T16:31:23.681Z,4.00
2023-04-22T16:33:50.847Z,2.67
2023-04-22T16:36:17.796Z,5.53
2023-04-22T16:38:44.587Z,2.50
2023-04-22T16:41:11.463Z,3.45
2023-04-22T16:43:41.084Z,5.05
2023-04-22T16:46:08.210Z,5.15
2023-04-22T16:48:35.297Z,8.30
2023-04-22T16:51:02.127Z,2.03
2023-04-22T16:56:09.753Z,5.22
2023-04-22T16:58:39.069Z,3.72
2023-04-22T17:01:06.013Z,4.05
2023-04-22T17:03:32.977Z,2.80
2023-04-22T17:05:59.777Z,5.05
2023-04-22T17:08:26.557Z,4.28
2023-04-22T17:10:53.300Z,3.97
2023-04-22T17:13:20.072Z,4.43
2023-04-22T17:15:48.204Z,3.03
2023-04-22T17:18:16.261Z,5.20
2023-04-22T17:20:43.344Z,2.60
2023-04-22T17:23:10.141Z,4.25
2023-04-22T17:25:36.930Z,2.85
2023-04-22T17:28:03.763Z,4.07
2023-04-22T17:30:30.656Z,2.90
2023-04-22T17:32:59.095Z,4.20
2023-04-22T17:35:25.988Z,3.85
2023-04-22T17:37:52.762Z,3.08
2023-04-22T17:40:19.632Z,6.35
2023-04-22T17:42:46.630Z,3.03
2023-04-22T17:45:13.616Z,3.20
2023-04-22T17:47:40.435Z,2.75
2023-04-22T17:50:09.384Z,4.95
2023-04-22T17:52:36.243Z,4.65
2023-04-22T17:55:03.228Z,3.53
2023-04-22T17:57:30.105Z,4.13
2023-04-22T17:59:56.899Z,4.85
2023-04-22T18:02:23.936Z,4.43
2023-04-22T18:04:50.875Z,3.53
2023-04-22T18:07:19.073Z,3.42
2023-04-22T18:09:45.842Z,4.90
2023-04-22T18:12:12.615Z,4.78
2023-04-22T18:14:39.428Z,3.65
2023-04-22T18:17:06.362Z,5.75
2023-04-22T18:19:33.109Z,3.40
2023-04-22T18:22:00.787Z,4.75
2023-04-22T18:24:28.965Z,7.57
2023-04-22T18:26:55.760Z,3.20
2023-04-22T18:29:22.538Z,4.47
2023-04-22T18:31:49.344Z,6.63
2023-04-22T18:34:16.175Z,4.70
2023-04-22T18:36:42.937Z,6.75
2023-04-22T18:39:09.790Z,8.93
2023-04-22T18:41:37.948Z,4.40
2023-04-22T18:44:04.787Z,10.15
2023-04-22T18:46:31.587Z,7.25
2023-04-22T18:48:58.362Z,8.07
2023-04-22T18:51:25.155Z,6.30
2023-04-22T18:53:51.935Z,6.75
2023-04-22T18:56:18.742Z,4.78
2023-04-22T18:58:47.062Z,6.15
2023-04-22T19:01:14.097Z,7.68
2023-04-22T19:03:41.227Z,4.25
2023-04-22T19:06:08.239Z,4.63
2023-04-22T19:08:35.094Z,7.07
2023-04-22T19:11:01.918Z,8.00
2023-04-22T19:13:30.154Z,9.70
2023-04-22T19:15:58.684Z,10.88
2023-04-22T19:18:25.764Z,8.77
2023-04-22T19:20:52.588Z,7.53
2023-04-22T19:23:19.443Z,13.07
2023-04-22T19:25:46.277Z,8.88
2023-04-22T19:28:13.064Z,7.35
2023-04-22T19:30:39.879Z,9.73
2023-04-22T19:33:08.258Z,10.27
2023-04-22T19:35:35.012Z,9.73
2023-04-22T19:38:01.753Z,9.15
2023-04-22T19:40:28.868Z,8.75
2023-04-22T19:42:55.629Z,8.38
2023-04-22T19:45:22.573Z,10.32
2023-04-22T19:47:49.956Z,7.13
2023-04-22T19:50:18.870Z,8.60
2023-04-22T19:52:46.380Z,9.05
2023-04-22T19:55:13.589Z,9.15
2023-04-22T19:57:40.613Z,9.85
2023-04-22T20:00:09.344Z,9.77
2023-04-22T20:02:37.089Z,8.65
2023-04-22T20:05:05.147Z,5.85
2023-04-22T20:07:33.844Z,7.75
2023-04-22T20:10:02.157Z,4.85
2023-04-22T20:12:29.411Z,3.83
2023-04-22T20:14:56.699Z,8.82
2023-04-22T20:17:24.081Z,6.32
2023-04-22T20:19:51.170Z,3.83
2023-04-22T20:22:18.898Z,6.30
2023-04-22T20:24:49.397Z,4.53
2023-04-22T20:27:16.515Z,3.15
2023-04-22T20:29:44.912Z,3.17
2023-04-22T20:32:11.967Z,5.25
2023-04-22T20:34:39.267Z,6.90
2023-04-22T20:37:06.544Z,3.97
2023-04-22T20:39:34.831Z,5.35
2023-04-22T20:42:03.420Z,5.05
2023-04-22T20:44:30.147Z,5.10
2023-04-22T20:46:56.911Z,5.53
2023-04-22T20:49:23.729Z,6.85
2023-04-22T20:51:50.483Z,4.07
2023-04-22T20:54:27.725Z,4.43
2023-04-22T20:56:55.048Z,4.35
2023-04-22T20:59:23.197Z,3.88
2023-04-22T21:01:51.203Z,7.15
2023-04-22T21:04:18.312Z,4.78
2023-04-22T21:06:48.481Z,4.90
2023-04-22T21:09:15.993Z,4.55
2023-04-22T21:11:43.361Z,4.43
2023-04-22T21:14:11.421Z,3.75
2023-04-22T21:16:42.702Z,6.15
2023-04-22T21:19:09.702Z,3.55
2023-04-22T21:21:37.531Z,4.03
2023-04-22T21:24:05.106Z,6.65
2023-04-22T21:26:32.352Z,4.18
2023-04-22T21:28:59.484Z,4.00
2023-04-22T21:31:26.333Z,4.22
2023-04-22T21:33:54.901Z,4.50
2023-04-22T21:36:21.630Z,4.75
2023-04-22T21:38:48.774Z,4.00
2023-04-22T21:41:15.687Z,5.43
2023-04-22T21:43:42.459Z,5.97
2023-04-22T21:46:09.445Z,4.53
2023-04-22T21:48:36.212Z,2.95
2023-04-22T21:51:04.512Z,4.28
2023-04-22T21:53:31.308Z,3.15
2023-04-22T21:55:58.256Z,5.60
2023-04-22T21:58:25.059Z,3.55
2023-04-22T22:00:51.901Z,5.32
2023-04-22T22:03:18.768Z,3.53
2023-04-22T22:05:45.633Z,4.78
2023-04-22T22:08:13.756Z,5.30
2023-04-22T22:10:40.544Z,6.95
2023-04-22T22:13:07.277Z,3.30
2023-04-22T22:15:34.076Z,5.93
2023-04-22T22:18:00.911Z,4.30
2023-04-22T22:20:27.851Z,5.60
2023-04-22T22:22:54.635Z,6.43
2023-04-22T22:25:22.880Z,3.75
2023-04-22T22:27:49.753Z,4.15
2023-04-22T22:30:17.376Z,4.28
2023-04-22T22:32:44.535Z,5.18
2023-04-22T22:35:11.517Z,4.57
2023-04-22T22:37:38.448Z,4.80
2023-04-22T22:40:06.514Z,4.32
2023-04-22T22:42:34.627Z,7.13
2023-04-22T22:45:01.482Z,6.50
2023-04-22T22:47:28.377Z,3.55
2023-04-22T22:49:55.195Z,4.60
2023-04-22T22:52:22.309Z,4.82
2023-04-22T22:54:49.634Z,3.83
2023-04-22T22:57:16.637Z,6.35
2023-04-22T22:59:44.917Z,4.07
2023-04-22T23:02:12.298Z,3.67
2023-04-22T23:04:40.658Z,3.90
2023-04-22T23:07:07.995Z,4.70
2023-04-22T23:09:34.942Z,3.30
2023-04-22T23:12:01.888Z,7.22
2023-04-22T23:14:28.777Z,3.95
2023-04-22T23:16:57.286Z,5.60
2023-04-22T23:19:25.237Z,7.30
2023-04-22T23:21:54.117Z,3.00
2023-04-22T23:24:21.440Z,3.08
2023-04-22T23:26:48.664Z,5.80
2023-04-22T23:29:16.041Z,4.55
2023-04-22T23:31:44.014Z,2.92
2023-04-22T23:34:14.939Z,5.68
2023-04-22T23:36:43.011Z,4.10
2023-04-22T23:39:09.919Z,6.05
2023-04-22T23:41:36.814Z,9.00
2023-04-22T23:44:03.644Z,7.10
2023-04-22T23:46:30.577Z,4.53
2023-04-22T23:48:57.515Z,4.10
2023-04-22T23:51:25.669Z,2.47
2023-04-22T23:53:52.484Z,4.45
2023-04-22T23:56:19.762Z,3.42
2023-04-22T23:58:47.166Z,4.05
